GMFF Airport Information

Runway Information
Runway 09 Length 10499 ft width 148 ft
Elevation 1854 ft Threshold 0 ft Heading 90
Runway 27 Length 10499 ft Width 148 ft
Elevation 1890 ft Threshold 820 ft Heading 270
Airport Frequencies
Type TWR Name TWR Frequency 118.6 MHZ
Airport Navaids
Type VOR-DME Name Saiss Frequency 115700 KHZ
Airport Weather Information & NOTAM
ADDS - METARS form results

(0741 UTC 17 October 2018)
Data provider http://aviationweather.gov/metar/data/
 
METAR text: GMFF 170730Z 00000KT 6000 BKN005 BKN026 16/17 Q1018 REDZ NOSIG
Conditions at: GMFF (FES-SAIS , MA) observed 0730 UTC 17 October 2018
Temperature: 16.0°C (61°F)
Dewpoint: 17.0°C (63°F) [RH = 107%]
Pressure (altimeter): 30.06 inches Hg (1018.0 mb)
Winds: calm
Visibility: 4 miles ( 6 km)
Ceiling: 500 feet AGL
Clouds: broken clouds at 500 feet AGL
broken clouds at 2600 feet AGL
Weather: no significant weather observed at this time

METAR text: GMFF 170700Z 13002KT 6000 BKN005 BKN026 16/16 Q1018 REDZ NOSIG
Conditions at: GMFF (FES-SAIS , MA) observed 0700 UTC 17 October 2018
Temperature: 16.0°C (61°F)
Dewpoint: 16.0°C (61°F) [RH = 100%]
Pressure (altimeter): 30.06 inches Hg (1018.0 mb)
Winds: from the SE (130 degrees) at 2 MPH (2 knots; 1.0 m/s)
Visibility: 4 miles ( 6 km)
Ceiling: 500 feet AGL
Clouds: broken clouds at 500 feet AGL
broken clouds at 2600 feet AGL
Weather: no significant weather observed at this time

Forecast for: GMFF (FES-SAIS , MA)
Text: TAF GMFF 170500Z 1706/1812 24004KT 8000 FEW010 BKN030
Forecast period: 0600 to 2000 UTC 17 October 2018
Forecast type: FROM: standard forecast or significant change
Winds: from the WSW (240 degrees) at 5 MPH (4 knots; 2.1 m/s)
Visibility: 5 miles (8 km)
Ceiling: 3000 feet AGL
Clouds: few clouds at 1000 feet AGL
broken clouds at 3000 feet AGL
Weather: no significant weather forecast for this period
Text: BECMG 1720/1724 3000 RA BKN007 BKN26
Forecast period: 2000 UTC 17 October 2018 to 1200 UTC 18 October 2018
Forecast type: BECOMING: Conditions expected to become as follows by 0000 UTC 18 October 2018
Winds: from the WSW (240 degrees) at 5 MPH (4 knots; 2.1 m/s)
Visibility: 1.86 miles (2.99 km)
Ceiling: 700 feet AGL
Clouds: broken clouds at 700 feet AGL
Weather: RA  (moderate rain)